Hovedside
METAR-TAF:

METAR-TAF

Lufthavner :

Haugesund, Norge

Haugesund lufthavn. Karmøy

breddegrad: 59-21N, lengdegrad: 005-13E, høyde over havet: 2 m

Gjeldene værobservasjon

Denne rapporten ble laget for 30 minutter siden, klokken 13:20 UTC
Vind 8 kt fra Sør-sørøst, skiftende mellom Sørøst og Sør
Temperatur 2°C
Luftfuktighet 55%
Trykk 1038 hPa
Sikt 10 km eller mer
Få skyer i en høyde av 3000 ft

METAR: ENHD 251320Z 16008KT 130V190 9999 FEW030 02/M06 Q1038

Tid: 14:50 (13:50 UTC)

Varsel

Denne rapporten ble laget for 2 timer og 50 minutter siden, klokken 11:00 UTC
Varsel gyldig fra 25. klokken 12 UTC til 25. klokken 21 UTC
Vind 8 kt fra Sør-sørøst
Sikt 10 km eller mer
Få skyer i en høyde av 3000 ft
Spredte skyer i en høyde av 7000 ft

TAF: ENHD 251100Z 2512/2521 15008KT 9999 FEW030 SCT070

Værobservasjoner og værvarsel for over 4000 flyplasser (METAR- og TAF-rapporter).

Tilgjengelige stasjoner er representert av de røde og gule prikkene på kartet.

Hold musepekeren over prikken for å se navnet på stasjonen.

Klikk så for å se værobservasjoner og -varsler.

For å forandre kartet kan du klikke på den grønne knappen med svart kryss for å zoome inn, på den grønne knappen med strek for å zoome ut, eller på de grønne pilene for å se tilstøtende kart.


METAR-TAF: